createdAt,value
2022-12-15T00:00:18.090Z,93273.25
2022-12-15T00:03:04.077Z,93291.72
2022-12-15T00:05:50.114Z,93285.56
2022-12-15T00:08:36.000Z,93285.00
2022-12-15T00:11:22.671Z,93272.50
2022-12-15T00:14:08.811Z,93282.97
2022-12-15T00:16:54.032Z,93297.31
2022-12-15T00:19:40.129Z,93284.72
2022-12-15T00:22:26.118Z,93282.34
2022-12-15T00:25:11.527Z,93274.75
2022-12-15T00:27:56.705Z,93267.94
2022-12-15T00:30:42.056Z,93291.63
2022-12-15T00:33:31.401Z,93286.44
2022-12-15T00:36:18.299Z,93276.09
2022-12-15T00:38:46.009Z,93296.31
2022-12-15T00:41:15.141Z,93292.97
2022-12-15T00:43:41.925Z,93309.25
2022-12-15T00:46:27.717Z,93315.97
2022-12-15T00:48:55.575Z,93296.72
2022-12-15T00:51:22.841Z,93288.06
2022-12-15T00:54:11.869Z,93302.53
2022-12-15T00:57:00.593Z,93267.91
2022-12-15T00:59:45.949Z,93285.16
2022-12-15T01:02:31.275Z,93264.09
2022-12-15T01:05:16.643Z,93271.81
2022-12-15T01:08:01.835Z,93276.44
2022-12-15T01:10:47.221Z,93289.03
2022-12-15T01:13:32.767Z,93302.16
2022-12-15T01:16:18.698Z,93306.50
2022-12-15T01:19:04.043Z,93298.47
2022-12-15T01:21:32.120Z,93326.34
2022-12-15T01:23:58.793Z,93316.34
2022-12-15T01:26:25.793Z,93339.22
2022-12-15T01:28:52.489Z,93340.94
2022-12-15T01:31:19.651Z,93322.78
2022-12-15T01:33:46.329Z,93335.13
2022-12-15T01:36:13.115Z,93319.31
2022-12-15T01:38:40.622Z,93333.63
2022-12-15T01:41:10.997Z,93323.63
2022-12-15T01:43:41.056Z,93329.38
2022-12-15T01:46:22.231Z,93321.91
2022-12-15T01:48:59.969Z,93329.22
2022-12-15T01:51:34.289Z,93328.66
2022-12-15T01:54:11.004Z,93301.97
2022-12-15T01:56:42.850Z,93330.94
2022-12-15T01:59:15.250Z,93326.94
2022-12-15T02:01:42.661Z,93344.31
2022-12-15T02:04:11.241Z,93339.06
2022-12-15T02:06:37.966Z,93346.00
2022-12-15T02:09:05.899Z,93342.88
2022-12-15T02:12:02.771Z,93339.25
2022-12-15T02:15:06.895Z,93335.16
2022-12-15T02:18:04.334Z,93339.00
2022-12-15T02:20:52.568Z,93354.22
2022-12-15T02:23:34.645Z,93342.03
2022-12-15T02:26:30.084Z,93352.81
2022-12-15T02:29:13.293Z,93366.00
2022-12-15T02:31:52.501Z,93370.66
2022-12-15T02:34:45.245Z,93381.69
2022-12-15T02:37:22.641Z,93374.03
2022-12-15T02:39:49.450Z,93384.75
2022-12-15T02:42:16.599Z,93374.22
2022-12-15T02:44:57.729Z,93378.03
2022-12-15T02:47:24.869Z,93377.53
2022-12-15T02:50:22.695Z,93384.78
2022-12-15T02:53:43.513Z,93385.47
2022-12-15T02:56:20.721Z,93369.50
2022-12-15T02:59:03.186Z,93365.88
2022-12-15T03:01:49.934Z,93368.06
2022-12-15T03:04:18.153Z,93358.25
2022-12-15T03:06:45.033Z,93371.31
2022-12-15T03:09:12.576Z,93331.34
2022-12-15T03:11:40.443Z,93355.47
2022-12-15T03:14:07.155Z,93371.78
2022-12-15T03:16:34.606Z,93382.44
2022-12-15T03:19:01.374Z,93388.38
2022-12-15T03:21:28.221Z,93390.50
2022-12-15T03:23:55.359Z,93403.31
2022-12-15T03:26:22.110Z,93396.00
2022-12-15T03:28:48.811Z,93411.53
2022-12-15T03:31:15.653Z,93417.66
2022-12-15T03:33:43.109Z,93425.94
2022-12-15T03:36:10.287Z,93420.94
2022-12-15T03:38:37.055Z,93404.56
2022-12-15T03:41:03.797Z,93406.56
2022-12-15T03:43:30.928Z,93411.22
2022-12-15T03:45:58.526Z,93406.31
2022-12-15T03:48:25.520Z,93406.78
2022-12-15T03:50:52.190Z,93403.38
2022-12-15T03:53:18.947Z,93419.97
2022-12-15T03:55:45.664Z,93418.63
2022-12-15T03:58:13.162Z,93396.34
2022-12-15T04:00:40.293Z,93427.19
2022-12-15T04:03:07.167Z,93435.00
2022-12-15T04:05:35.336Z,93417.94
2022-12-15T04:08:02.488Z,93439.00
2022-12-15T04:10:34.653Z,93434.69
2022-12-15T04:13:07.374Z,93434.81
2022-12-15T04:15:35.748Z,93423.75
2022-12-15T04:18:05.947Z,93430.56
2022-12-15T04:20:33.223Z,93427.81
2022-12-15T04:23:00.366Z,93437.66
2022-12-15T04:25:46.193Z,93442.56
2022-12-15T04:28:32.565Z,93435.03
2022-12-15T04:31:36.761Z,93431.19
2022-12-15T04:34:24.886Z,93443.09
2022-12-15T04:37:12.735Z,93442.50
2022-12-15T04:40:00.925Z,93437.44
2022-12-15T04:42:47.505Z,93469.97
2022-12-15T04:45:35.846Z,93446.13
2022-12-15T04:48:20.809Z,93478.25
2022-12-15T04:51:06.528Z,93450.50
2022-12-15T04:53:51.742Z,93479.09
2022-12-15T04:56:36.973Z,93458.69
2022-12-15T04:59:22.589Z,93478.69
2022-12-15T05:02:07.822Z,93452.56
2022-12-15T05:04:53.631Z,93461.78
2022-12-15T05:07:39.327Z,93430.63
2022-12-15T05:10:26.005Z,93462.72
2022-12-15T05:13:11.339Z,93494.47
2022-12-15T05:15:57.089Z,93483.81
2022-12-15T05:18:43.086Z,93480.09
2022-12-15T05:21:28.261Z,93475.69
2022-12-15T05:24:13.969Z,93474.34
2022-12-15T05:26:59.165Z,93489.50
2022-12-15T05:29:44.401Z,93490.34
2022-12-15T05:32:13.641Z,93479.22
2022-12-15T05:34:40.645Z,93473.44
2022-12-15T05:37:07.702Z,93486.41
2022-12-15T05:39:34.518Z,93479.84
2022-12-15T05:42:01.454Z,93499.41
2022-12-15T05:44:29.473Z,93502.75
2022-12-15T05:46:56.303Z,93489.59
2022-12-15T05:49:23.453Z,93503.53
2022-12-15T05:51:50.528Z,93510.59
2022-12-15T05:54:19.685Z,93520.28
2022-12-15T05:56:50.446Z,93519.47
2022-12-15T05:59:19.220Z,93530.72
2022-12-15T06:01:46.432Z,93516.50
2022-12-15T06:04:14.600Z,93521.00
2022-12-15T06:06:41.549Z,93500.91
2022-12-15T06:09:09.251Z,93488.53
2022-12-15T06:11:37.420Z,93474.13
2022-12-15T06:14:04.288Z,93501.16
2022-12-15T06:16:31.154Z,93501.94
2022-12-15T06:19:01.019Z,93528.13
2022-12-15T06:21:31.500Z,93534.19
2022-12-15T06:23:58.829Z,93518.28
2022-12-15T06:26:28.699Z,93518.66
2022-12-15T06:28:58.789Z,93519.09
2022-12-15T06:31:26.695Z,93515.09
2022-12-15T06:34:00.890Z,93536.16
2022-12-15T06:36:28.843Z,93544.69
2022-12-15T06:38:58.812Z,93557.47
2022-12-15T06:41:25.528Z,93564.19
2022-12-15T06:43:55.910Z,93559.69
2022-12-15T06:46:24.282Z,93545.78
2022-12-15T06:48:51.576Z,93546.25
2022-12-15T06:51:18.874Z,93554.50
2022-12-15T06:53:49.059Z,93562.91
2022-12-15T06:56:30.718Z,93572.03
2022-12-15T06:59:00.391Z,93565.88
2022-12-15T07:01:28.277Z,93569.00
2022-12-15T07:03:55.907Z,93566.44
2022-12-15T07:06:23.184Z,93553.41
2022-12-15T07:08:53.103Z,93576.00
2022-12-15T07:11:21.256Z,93574.72
2022-12-15T07:13:53.156Z,93590.38
2022-12-15T07:16:21.854Z,93584.16
2022-12-15T07:18:49.534Z,93584.31
2022-12-15T07:21:16.957Z,93578.50
2022-12-15T07:24:00.884Z,93589.16
2022-12-15T07:26:29.303Z,93603.78
2022-12-15T07:28:56.247Z,93602.28
2022-12-15T07:31:23.703Z,93602.41
2022-12-15T07:33:52.703Z,93603.16
2022-12-15T07:36:19.819Z,93603.94
2022-12-15T07:38:50.079Z,93584.53
2022-12-15T07:41:18.664Z,93575.94
2022-12-15T07:43:47.120Z,93580.41
2022-12-15T07:46:14.654Z,93548.56
2022-12-15T07:48:41.536Z,93569.19
2022-12-15T07:51:17.116Z,93583.78
2022-12-15T07:53:47.017Z,93578.00
2022-12-15T07:56:14.756Z,93571.06
2022-12-15T07:58:42.570Z,93544.56
2022-12-15T08:01:12.649Z,93556.19
2022-12-15T08:03:40.405Z,93579.19
2022-12-15T08:06:13.718Z,93572.22
2022-12-15T08:08:43.756Z,93573.31
2022-12-15T08:11:14.775Z,93577.38
2022-12-15T08:16:32.138Z,93592.63
2022-12-15T08:19:00.076Z,93587.84
2022-12-15T08:21:27.755Z,93596.53
2022-12-15T08:23:55.065Z,93610.59
2022-12-15T08:26:26.794Z,93629.03
2022-12-15T08:29:11.894Z,93643.59
2022-12-15T08:31:45.164Z,93634.13
2022-12-15T08:34:12.860Z,93640.19
2022-12-15T08:36:39.616Z,93648.97
2022-12-15T08:39:06.339Z,93643.69
2022-12-15T08:41:33.658Z,93647.16
2022-12-15T08:44:01.743Z,93667.47
2022-12-15T08:46:33.999Z,93680.16
2022-12-15T08:49:02.683Z,93668.66
2022-12-15T08:51:31.508Z,93650.81
2022-12-15T08:54:00.372Z,93681.38
2022-12-15T08:56:28.253Z,93647.84
2022-12-15T08:59:02.635Z,93661.91
2022-12-15T09:01:32.462Z,93664.84
2022-12-15T09:04:01.671Z,93671.06
2022-12-15T09:06:34.622Z,93687.84
2022-12-15T09:09:05.888Z,93663.97
2022-12-15T09:11:33.092Z,93659.22
2022-12-15T09:14:00.556Z,93662.72
2022-12-15T09:16:28.371Z,93663.13
2022-12-15T09:18:57.885Z,93659.34
2022-12-15T09:21:29.433Z,93651.13
2022-12-15T09:24:01.993Z,93646.59
2022-12-15T09:26:34.620Z,93638.41
2022-12-15T09:29:02.693Z,93627.78
2022-12-15T09:31:33.323Z,93627.59
2022-12-15T09:34:02.137Z,93621.50
2022-12-15T09:36:31.983Z,93622.72
2022-12-15T09:39:02.111Z,93616.63
2022-12-15T09:41:39.978Z,93631.16
2022-12-15T09:44:13.801Z,93615.47
2022-12-15T09:47:05.027Z,93611.31
2022-12-15T09:49:57.584Z,93608.19
2022-12-15T09:52:27.398Z,93614.56
2022-12-15T09:54:54.379Z,93624.31
2022-12-15T09:57:26.017Z,93623.47
2022-12-15T10:00:11.657Z,93618.66
2022-12-15T10:02:45.073Z,93614.50
2022-12-15T10:06:06.796Z,93611.63
2022-12-15T10:08:31.298Z,93612.41
2022-12-15T10:11:01.797Z,93599.22
2022-12-15T10:13:44.128Z,93613.59
2022-12-15T10:16:55.235Z,93612.06
2022-12-15T10:20:27.031Z,93593.78
2022-12-15T10:22:56.802Z,93574.59
2022-12-15T10:25:30.073Z,93574.84
2022-12-15T10:28:17.878Z,93595.19
2022-12-15T10:31:14.462Z,93580.13
2022-12-15T10:33:48.481Z,93602.00
2022-12-15T10:36:18.275Z,93597.41
2022-12-15T10:38:50.504Z,93594.00
2022-12-15T10:41:21.554Z,93567.22
2022-12-15T10:43:50.793Z,93565.94
2022-12-15T10:46:22.139Z,93568.28
2022-12-15T10:49:00.538Z,93556.50
2022-12-15T10:51:37.128Z,93559.81
2022-12-15T10:54:09.843Z,93567.81
2022-12-15T10:56:57.918Z,93523.06
2022-12-15T10:59:36.448Z,93538.50
2022-12-15T11:02:33.202Z,93541.34
2022-12-15T11:05:15.632Z,93547.59
2022-12-15T11:07:48.237Z,93533.38
2022-12-15T11:10:19.184Z,93517.25
2022-12-15T11:13:15.723Z,93521.88
2022-12-15T11:15:56.634Z,93540.09
2022-12-15T11:18:48.722Z,93540.06
2022-12-15T11:21:30.746Z,93528.47
2022-12-15T11:24:15.890Z,93528.38
2022-12-15T11:26:48.813Z,93506.41
2022-12-15T11:29:21.390Z,93505.59
2022-12-15T11:31:50.242Z,93512.81
2022-12-15T11:34:21.150Z,93505.72
2022-12-15T11:37:24.144Z,93536.97
2022-12-15T11:40:02.443Z,93519.78
2022-12-15T11:43:12.739Z,93517.91
2022-12-15T11:46:32.743Z,93545.81
2022-12-15T11:49:08.293Z,93562.44
2022-12-15T11:51:41.389Z,93520.84
2022-12-15T11:54:15.014Z,93509.00
2022-12-15T11:56:56.618Z,93517.47
2022-12-15T11:59:29.987Z,93521.09
2022-12-15T12:02:34.027Z,93507.47
2022-12-15T12:05:41.790Z,93519.16
2022-12-15T12:08:30.540Z,93528.97
2022-12-15T12:11:18.904Z,93510.72
2022-12-15T12:14:11.635Z,93496.53
2022-12-15T12:16:48.772Z,93484.44
2022-12-15T12:19:34.681Z,93451.19
2022-12-15T12:22:12.510Z,93427.50
2022-12-15T12:24:50.789Z,93435.28
2022-12-15T12:27:30.227Z,93451.69
2022-12-15T12:30:11.894Z,93437.63
2022-12-15T12:32:51.306Z,93419.53
2022-12-15T12:35:42.878Z,93430.28
2022-12-15T12:38:12.485Z,93430.53
2022-12-15T12:41:04.546Z,93442.34
2022-12-15T12:43:58.182Z,93445.09
2022-12-15T12:46:42.698Z,93426.06
2022-12-15T12:49:12.266Z,93431.25
2022-12-15T12:51:42.110Z,93428.97
2022-12-15T12:54:34.706Z,93419.97
2022-12-15T12:57:22.460Z,93437.78
2022-12-15T13:00:01.739Z,93423.28
2022-12-15T13:02:29.390Z,93441.56
2022-12-15T13:05:00.716Z,93420.16
2022-12-15T13:07:40.406Z,93435.50
2022-12-15T13:10:07.800Z,93434.75
2022-12-15T13:12:54.008Z,93475.06
2022-12-15T13:15:30.597Z,93446.00
2022-12-15T13:18:18.755Z,93451.78
2022-12-15T13:20:50.554Z,93432.63
2022-12-15T13:23:20.303Z,93406.69
2022-12-15T13:26:07.548Z,93404.69
2022-12-15T13:28:35.336Z,93441.41
2022-12-15T13:31:24.477Z,93432.41
2022-12-15T13:33:51.359Z,93434.69
2022-12-15T13:36:36.896Z,93430.44
2022-12-15T13:39:12.910Z,93418.31
2022-12-15T13:42:23.753Z,93429.00
2022-12-15T13:44:41.864Z,93407.09
2022-12-15T13:47:13.230Z,93425.38
2022-12-15T13:50:01.756Z,93423.41
2022-12-15T13:53:17.827Z,93409.44
2022-12-15T13:55:51.146Z,93414.44
2022-12-15T13:58:20.515Z,93382.06
2022-12-15T14:00:51.679Z,93403.78
2022-12-15T14:03:19.392Z,93413.50
2022-12-15T14:05:55.193Z,93402.19
2022-12-15T14:08:23.933Z,93398.47
2022-12-15T14:10:59.085Z,93380.63
2022-12-15T14:13:35.103Z,93386.41
2022-12-15T14:16:14.655Z,93371.41
2022-12-15T14:18:43.271Z,93370.06
2022-12-15T14:21:24.828Z,93387.81
2022-12-15T14:24:19.738Z,93400.66
2022-12-15T14:26:41.219Z,93400.94
2022-12-15T14:29:10.654Z,93388.50
2022-12-15T14:31:37.827Z,93390.72
2022-12-15T14:34:38.898Z,93395.38
2022-12-15T14:37:12.316Z,93388.34
2022-12-15T14:39:46.868Z,93391.53
2022-12-15T14:42:25.632Z,93378.63
2022-12-15T14:44:57.376Z,93376.78
2022-12-15T14:47:32.422Z,93393.19
2022-12-15T14:50:02.138Z,93387.47
2022-12-15T14:52:40.017Z,93378.34
2022-12-15T14:55:27.764Z,93394.06
2022-12-15T14:57:54.556Z,93397.41
2022-12-15T15:00:32.898Z,93377.09
2022-12-15T15:03:39.434Z,93371.59
2022-12-15T15:06:12.718Z,93376.47
2022-12-15T15:08:52.615Z,93361.88
2022-12-15T15:11:36.246Z,93370.59
2022-12-15T15:14:08.988Z,93371.91
2022-12-15T15:16:36.791Z,93356.94
2022-12-15T15:19:05.472Z,93345.94
2022-12-15T15:21:37.379Z,93370.22
2022-12-15T15:24:24.990Z,93382.53
2022-12-15T15:26:52.808Z,93396.53
2022-12-15T15:29:41.250Z,93369.19
2022-12-15T15:32:18.091Z,93364.59
2022-12-15T15:34:48.633Z,93371.72
2022-12-15T15:37:21.776Z,93375.81
2022-12-15T15:39:51.167Z,93373.16
2022-12-15T15:42:19.103Z,93356.47
2022-12-15T15:44:47.257Z,93370.25
2022-12-15T15:47:27.010Z,93368.97
2022-12-15T15:49:58.339Z,93369.72
2022-12-15T15:52:26.243Z,93336.53
2022-12-15T15:54:53.372Z,93340.25
2022-12-15T15:57:20.453Z,93338.91
2022-12-15T15:59:47.953Z,93326.06
2022-12-15T16:02:15.598Z,93325.44
2022-12-15T16:04:44.622Z,93315.91
2022-12-15T16:07:25.571Z,93306.09
2022-12-15T16:09:53.460Z,93299.88
2022-12-15T16:12:44.984Z,93314.78
2022-12-15T16:15:18.505Z,93314.00
2022-12-15T16:20:28.367Z,93320.53
2022-12-15T16:22:59.606Z,93308.22
2022-12-15T16:25:48.491Z,93315.47
2022-12-15T16:28:23.502Z,93300.22
2022-12-15T16:30:51.700Z,93324.56
2022-12-15T16:33:19.287Z,93312.03
2022-12-15T16:35:50.575Z,93316.09
2022-12-15T16:38:24.528Z,93304.84
2022-12-15T16:40:55.435Z,93288.22
2022-12-15T16:43:28.956Z,93326.09
2022-12-15T16:46:00.046Z,93303.13
2022-12-15T16:48:27.292Z,93308.78
2022-12-15T16:50:58.610Z,93344.00
2022-12-15T16:53:29.715Z,93326.97
2022-12-15T16:55:58.862Z,93355.91
2022-12-15T16:58:27.284Z,93332.84
2022-12-15T17:00:54.846Z,93306.16
2022-12-15T17:03:25.888Z,93315.34
2022-12-15T17:05:55.854Z,93321.16
2022-12-15T17:08:46.689Z,93296.56
2022-12-15T17:11:25.718Z,93304.31
2022-12-15T17:13:55.893Z,93288.66
2022-12-15T17:16:25.285Z,93292.91
2022-12-15T17:18:52.907Z,93291.16
2022-12-15T17:21:32.467Z,93290.25
2022-12-15T17:24:06.711Z,93313.13
2022-12-15T17:26:37.601Z,93315.00
2022-12-15T17:29:23.424Z,93311.38
2022-12-15T17:31:50.406Z,93314.63
2022-12-15T17:34:34.744Z,93318.84
2022-12-15T17:37:04.679Z,93317.50
2022-12-15T17:39:34.112Z,93288.66
2022-12-15T17:42:01.986Z,93317.53
2022-12-15T17:44:36.293Z,93301.50
2022-12-15T17:47:07.031Z,93295.16
2022-12-15T17:49:37.316Z,93289.53
2022-12-15T17:52:26.329Z,93300.69
2022-12-15T17:54:53.666Z,93295.31
2022-12-15T17:57:21.727Z,93294.44
2022-12-15T17:59:49.067Z,93287.13
2022-12-15T18:02:16.037Z,93312.56
2022-12-15T18:04:43.533Z,93291.94
2022-12-15T18:07:24.143Z,93285.41
2022-12-15T18:09:53.150Z,93274.81
2022-12-15T18:12:23.387Z,93274.31
2022-12-15T18:14:50.721Z,93248.63
2022-12-15T18:17:18.217Z,93249.00
2022-12-15T18:19:46.103Z,93255.34
2022-12-15T18:22:23.422Z,93240.97
2022-12-15T18:24:53.431Z,93222.69
2022-12-15T18:27:22.332Z,93221.69
2022-12-15T18:29:49.921Z,93220.84
2022-12-15T18:32:17.887Z,93202.38
2022-12-15T18:34:44.888Z,93195.41
2022-12-15T18:37:20.089Z,93205.81
2022-12-15T18:39:47.409Z,93178.84
2022-12-15T18:42:17.006Z,93179.09
2022-12-15T18:44:48.176Z,93177.28
2022-12-15T18:47:23.767Z,93174.56
2022-12-15T18:49:50.960Z,93149.22
2022-12-15T18:52:23.861Z,93164.16
2022-12-15T18:54:54.312Z,93162.88
2022-12-15T18:57:39.420Z,93152.22
2022-12-15T19:00:15.200Z,93156.97
2022-12-15T19:02:42.756Z,93145.00
2022-12-15T19:05:28.009Z,93149.22
2022-12-15T19:07:56.541Z,93183.91
2022-12-15T19:10:27.020Z,93168.38
2022-12-15T19:12:58.375Z,93154.50
2022-12-15T19:15:26.009Z,93143.03
2022-12-15T19:18:11.549Z,93153.91
2022-12-15T19:20:57.805Z,93151.41
2022-12-15T19:23:24.990Z,93165.31
2022-12-15T19:25:53.775Z,93120.38
2022-12-15T19:28:23.812Z,93127.63
2022-12-15T19:30:52.803Z,93136.09
2022-12-15T19:33:20.432Z,93121.22
2022-12-15T19:35:51.424Z,93126.72
2022-12-15T19:38:29.412Z,93116.56
2022-12-15T19:40:57.903Z,93099.97
2022-12-15T19:43:25.494Z,93110.59
2022-12-15T19:45:54.658Z,93091.25
2022-12-15T19:48:23.670Z,93096.78
2022-12-15T19:50:54.947Z,93108.00
2022-12-15T19:53:28.288Z,93084.09
2022-12-15T19:55:59.042Z,93090.31
2022-12-15T19:58:36.481Z,93084.47
2022-12-15T20:01:10.157Z,93083.34
2022-12-15T20:03:38.639Z,93079.91
2022-12-15T20:06:14.411Z,93058.03
2022-12-15T20:08:42.892Z,93063.94
2022-12-15T20:11:28.692Z,93057.47
2022-12-15T20:13:56.413Z,93077.25
2022-12-15T20:16:24.895Z,93082.88
2022-12-15T20:18:54.934Z,93081.06
2022-12-15T20:21:32.317Z,93063.88
2022-12-15T20:24:02.477Z,93043.91
2022-12-15T20:26:30.546Z,93047.25
2022-12-15T20:28:58.052Z,93050.63
2022-12-15T20:31:26.871Z,93069.03
2022-12-15T20:33:54.582Z,93056.97
2022-12-15T20:36:27.734Z,93054.50
2022-12-15T20:38:56.665Z,93043.63
2022-12-15T20:41:28.658Z,93034.13
2022-12-15T20:43:56.342Z,93048.41
2022-12-15T20:46:33.152Z,93060.78
2022-12-15T20:49:00.396Z,93069.56
2022-12-15T20:51:32.850Z,93053.72
2022-12-15T20:54:02.846Z,93071.81
2022-12-15T20:56:29.966Z,93061.97
2022-12-15T20:58:58.291Z,93052.31
2022-12-15T21:01:28.892Z,93042.84
2022-12-15T21:03:57.522Z,93042.38
2022-12-15T21:06:25.947Z,93045.75
2022-12-15T21:08:53.997Z,93047.66
2022-12-15T21:11:26.977Z,93051.00
2022-12-15T21:13:56.846Z,93038.94
2022-12-15T21:16:27.736Z,93035.91
2022-12-15T21:19:20.267Z,93034.59
2022-12-15T21:21:46.220Z,93041.03
2022-12-15T21:24:19.582Z,93064.13
2022-12-15T21:26:47.054Z,93073.72
2022-12-15T21:29:16.072Z,93071.53
2022-12-15T21:31:44.026Z,93098.59
2022-12-15T21:34:11.868Z,93065.63
2022-12-15T21:36:41.790Z,93048.44
2022-12-15T21:39:11.722Z,93042.63
2022-12-15T21:41:43.024Z,93065.28
2022-12-15T21:44:15.201Z,93048.88
2022-12-15T21:46:42.127Z,93063.72
2022-12-15T21:49:20.723Z,93076.84
2022-12-15T21:51:52.770Z,93080.72
2022-12-15T21:57:12.784Z,93064.94
2022-12-15T21:59:40.624Z,93064.25
2022-12-15T22:02:36.808Z,93077.41
2022-12-15T22:05:04.092Z,93072.97
2022-12-15T22:07:31.349Z,93068.28
2022-12-15T22:09:58.479Z,93086.50
2022-12-15T22:12:26.905Z,93081.06
2022-12-15T22:14:54.658Z,93064.66
2022-12-15T22:17:22.271Z,93069.50
2022-12-15T22:19:49.951Z,93077.50
2022-12-15T22:22:17.286Z,93088.19
2022-12-15T22:24:44.339Z,93096.72
2022-12-15T22:27:23.351Z,93079.38
2022-12-15T22:29:51.780Z,93041.91
2022-12-15T22:32:18.793Z,93070.31
2022-12-15T22:34:45.637Z,93075.66
2022-12-15T22:37:12.754Z,93087.59
2022-12-15T22:39:40.939Z,93087.09
2022-12-15T22:42:15.038Z,93041.41
2022-12-15T22:44:42.365Z,93072.88
2022-12-15T22:47:11.054Z,93056.63
2022-12-15T22:49:41.172Z,93041.69
2022-12-15T22:52:19.174Z,93041.56
2022-12-15T22:54:46.656Z,93047.75
2022-12-15T22:57:35.446Z,93049.97
2022-12-15T23:00:08.188Z,93063.38
2022-12-15T23:02:39.183Z,93055.13
2022-12-15T23:05:07.671Z,93057.34
2022-12-15T23:07:35.637Z,93060.34
2022-12-15T23:10:21.743Z,93046.31
2022-12-15T23:12:54.916Z,93038.72
2022-12-15T23:15:41.882Z,93033.28
2022-12-15T23:18:08.920Z,93034.72
2022-12-15T23:20:37.215Z,93028.78
2022-12-15T23:23:05.409Z,92993.97
2022-12-15T23:25:32.213Z,93018.41
2022-12-15T23:27:59.129Z,93019.53
2022-12-15T23:30:26.305Z,93039.13
2022-12-15T23:32:55.416Z,93042.53
2022-12-15T23:35:22.833Z,93044.69
2022-12-15T23:37:49.593Z,93042.13
2022-12-15T23:40:22.278Z,93023.41
2022-12-15T23:42:49.975Z,93059.50
2022-12-15T23:45:18.279Z,93035.34
2022-12-15T23:47:45.121Z,93032.97
2022-12-15T23:50:12.025Z,93023.75
2022-12-15T23:52:39.053Z,93029.53
2022-12-15T23:55:10.397Z,93033.16
2022-12-15T23:57:38.608Z,93056.81
